Terminal Aerodrome Forecast
Issued by NWS St Louis, MO

Home | Current Version | Previous Version | Graphics & Text | Print | Product List | Glossary On
Versions: 1 2 3 4 5 6 7 8 9 10 11 12 13 14 15 16 17 18 19 20 21 22 23 24 25 26 27 28 29 30 31 32 33
000
FTUS43 KLSX 271500 AAB
TAFSTL
TAF AMD
KSTL 271500Z 2715/2818 17010KT 6SM -SHRA FEW010 SCT050 BKN100
      TEMPO 2715/2716 4SM -RA BKN008
     FM271600 18012G20KT P6SM SCT040 BKN100
     FM272100 17014G22KT 6SM -SHRA VCTS SCT050CB BKN100
     FM280300 17012KT P6SM SCT050 BKN100=

USA.gov is the U.S. government's official web portal to all federal, state and local government web resources and services.